sensor_id;sensor_type;location;lat;lon;timestamp;temperature;humidity
6054;DHT22;3055;50.886;14.814;2024-01-07T00:00:18;0.00;99.90
6054;DHT22;3055;50.886;14.814;2024-01-07T00:02:47;0.00;99.90
6054;DHT22;3055;50.886;14.814;2024-01-07T00:05:14;0.00;99.90
6054;DHT22;3055;50.886;14.814;2024-01-07T00:07:42;0.00;99.90
6054;DHT22;3055;50.886;14.814;2024-01-07T00:10:09;0.00;99.90
6054;DHT22;3055;50.886;14.814;2024-01-07T00:12:37;0.00;99.90
6054;DHT22;3055;50.886;14.814;2024-01-07T00:15:05;0.00;99.90
6054;DHT22;3055;50.886;14.814;2024-01-07T00:17:33;0.00;99.90
6054;DHT22;3055;50.886;14.814;2024-01-07T00:20:03;0.00;99.90
6054;DHT22;3055;50.886;14.814;2024-01-07T00:22:30;0.00;99.90
6054;DHT22;3055;50.886;14.814;2024-01-07T00:24:57;0.00;99.90
6054;DHT22;3055;50.886;14.814;2024-01-07T00:27:24;-0.10;99.90
6054;DHT22;3055;50.886;14.814;2024-01-07T00:29:51;-0.10;99.90
6054;DHT22;3055;50.886;14.814;2024-01-07T00:32:18;-0.10;99.90
6054;DHT22;3055;50.886;14.814;2024-01-07T00:34:46;0.00;99.90
6054;DHT22;3055;50.886;14.814;2024-01-07T00:37:14;-0.10;99.90
6054;DHT22;3055;50.886;14.814;2024-01-07T00:39:42;-0.10;99.90
6054;DHT22;3055;50.886;14.814;2024-01-07T00:42:11;-0.10;99.90
6054;DHT22;3055;50.886;14.814;2024-01-07T00:44:38;-0.10;99.90
6054;DHT22;3055;50.886;14.814;2024-01-07T00:47:05;-0.10;99.90
6054;DHT22;3055;50.886;14.814;2024-01-07T00:49:33;-0.20;99.90
6054;DHT22;3055;50.886;14.814;2024-01-07T00:52:00;-0.20;99.90
6054;DHT22;3055;50.886;14.814;2024-01-07T00:54:28;-0.20;99.90
6054;DHT22;3055;50.886;14.814;2024-01-07T00:56:55;-0.20;99.90
6054;DHT22;3055;50.886;14.814;2024-01-07T00:59:23;-0.20;99.90
6054;DHT22;3055;50.886;14.814;2024-01-07T01:01:50;-0.20;99.90
6054;DHT22;3055;50.886;14.814;2024-01-07T01:04:17;-0.20;99.90
6054;DHT22;3055;50.886;14.814;2024-01-07T01:06:45;-0.10;99.90
6054;DHT22;3055;50.886;14.814;2024-01-07T01:09:12;-0.20;99.90
6054;DHT22;3055;50.886;14.814;2024-01-07T01:11:41;-0.20;99.90
6054;DHT22;3055;50.886;14.814;2024-01-07T01:14:08;-0.20;99.90
6054;DHT22;3055;50.886;14.814;2024-01-07T01:16:35;-0.20;99.90
6054;DHT22;3055;50.886;14.814;2024-01-07T01:19:02;-0.20;99.90
6054;DHT22;3055;50.886;14.814;2024-01-07T01:21:29;-0.10;99.90
6054;DHT22;3055;50.886;14.814;2024-01-07T01:23:56;-0.20;99.90
6054;DHT22;3055;50.886;14.814;2024-01-07T01:26:23;-0.20;99.90
6054;DHT22;3055;50.886;14.814;2024-01-07T01:28:52;-0.20;99.90
6054;DHT22;3055;50.886;14.814;2024-01-07T01:31:19;-0.20;99.90
6054;DHT22;3055;50.886;14.814;2024-01-07T01:33:46;-0.20;99.90
6054;DHT22;3055;50.886;14.814;2024-01-07T01:36:13;-0.30;99.90
6054;DHT22;3055;50.886;14.814;2024-01-07T01:38:40;-0.30;99.90
6054;DHT22;3055;50.886;14.814;2024-01-07T01:41:07;-0.30;99.90
6054;DHT22;3055;50.886;14.814;2024-01-07T01:43:35;-0.30;99.90
6054;DHT22;3055;50.886;14.814;2024-01-07T01:46:03;-0.30;99.90
6054;DHT22;3055;50.886;14.814;2024-01-07T01:48:30;-0.20;99.90
6054;DHT22;3055;50.886;14.814;2024-01-07T01:50:58;-0.20;99.90
6054;DHT22;3055;50.886;14.814;2024-01-07T01:53:25;-0.30;99.90
6054;DHT22;3055;50.886;14.814;2024-01-07T01:55:56;-0.30;99.90
6054;DHT22;3055;50.886;14.814;2024-01-07T01:58:24;-0.20;99.90
6054;DHT22;3055;50.886;14.814;2024-01-07T02:00:52;-0.20;99.90
6054;DHT22;3055;50.886;14.814;2024-01-07T02:03:20;-0.20;99.90
6054;DHT22;3055;50.886;14.814;2024-01-07T02:05:48;-0.30;99.90
6054;DHT22;3055;50.886;14.814;2024-01-07T02:08:16;-0.30;99.90
6054;DHT22;3055;50.886;14.814;2024-01-07T02:10:43;-0.30;99.90
6054;DHT22;3055;50.886;14.814;2024-01-07T02:13:11;-0.30;99.90
6054;DHT22;3055;50.886;14.814;2024-01-07T02:15:38;-0.30;99.90
6054;DHT22;3055;50.886;14.814;2024-01-07T02:18:05;-0.30;99.90
6054;DHT22;3055;50.886;14.814;2024-01-07T02:20:33;-0.30;99.90
6054;DHT22;3055;50.886;14.814;2024-01-07T02:23:01;-0.30;99.90
6054;DHT22;3055;50.886;14.814;2024-01-07T02:25:35;-0.30;99.90
6054;DHT22;3055;50.886;14.814;2024-01-07T02:28:02;-0.30;99.90
6054;DHT22;3055;50.886;14.814;2024-01-07T02:30:29;-0.40;99.90
6054;DHT22;3055;50.886;14.814;2024-01-07T02:32:56;-0.30;99.90
6054;DHT22;3055;50.886;14.814;2024-01-07T02:35:27;-0.30;99.90
6054;DHT22;3055;50.886;14.814;2024-01-07T02:37:54;-0.40;99.90
6054;DHT22;3055;50.886;14.814;2024-01-07T02:40:21;-0.40;99.90
6054;DHT22;3055;50.886;14.814;2024-01-07T02:42:50;-0.40;99.90
6054;DHT22;3055;50.886;14.814;2024-01-07T02:45:17;-0.40;99.90
6054;DHT22;3055;50.886;14.814;2024-01-07T02:47:44;-0.50;99.90
6054;DHT22;3055;50.886;14.814;2024-01-07T02:50:12;-0.50;99.90
6054;DHT22;3055;50.886;14.814;2024-01-07T02:52:39;-0.50;99.90
6054;DHT22;3055;50.886;14.814;2024-01-07T02:55:07;-0.60;99.90
6054;DHT22;3055;50.886;14.814;2024-01-07T02:57:34;-0.60;99.90
6054;DHT22;3055;50.886;14.814;2024-01-07T03:00:05;-0.60;99.90
6054;DHT22;3055;50.886;14.814;2024-01-07T03:02:33;-0.60;99.90
6054;DHT22;3055;50.886;14.814;2024-01-07T03:05:00;-0.70;99.90
6054;DHT22;3055;50.886;14.814;2024-01-07T03:07:28;-0.80;99.90
6054;DHT22;3055;50.886;14.814;2024-01-07T03:09:55;-0.70;99.90
6054;DHT22;3055;50.886;14.814;2024-01-07T03:12:22;-0.70;99.90
6054;DHT22;3055;50.886;14.814;2024-01-07T03:14:49;-0.80;99.90
6054;DHT22;3055;50.886;14.814;2024-01-07T03:17:17;-0.80;99.90
6054;DHT22;3055;50.886;14.814;2024-01-07T03:19:44;-0.70;99.90
6054;DHT22;3055;50.886;14.814;2024-01-07T03:22:12;-0.70;99.90
6054;DHT22;3055;50.886;14.814;2024-01-07T03:24:39;-0.80;99.90
6054;DHT22;3055;50.886;14.814;2024-01-07T03:27:08;-0.80;99.90
6054;DHT22;3055;50.886;14.814;2024-01-07T03:29:35;-0.80;99.90
6054;DHT22;3055;50.886;14.814;2024-01-07T03:32:03;-0.90;99.90
6054;DHT22;3055;50.886;14.814;2024-01-07T03:34:31;-0.80;99.90
6054;DHT22;3055;50.886;14.814;2024-01-07T03:36:58;-0.80;99.90
6054;DHT22;3055;50.886;14.814;2024-01-07T03:39:26;-0.80;99.90
6054;DHT22;3055;50.886;14.814;2024-01-07T03:41:55;-0.70;99.90
6054;DHT22;3055;50.886;14.814;2024-01-07T03:44:22;-0.80;99.90
6054;DHT22;3055;50.886;14.814;2024-01-07T03:46:49;-0.80;99.90
6054;DHT22;3055;50.886;14.814;2024-01-07T03:49:18;-0.90;99.90
6054;DHT22;3055;50.886;14.814;2024-01-07T03:51:46;-0.90;99.90
6054;DHT22;3055;50.886;14.814;2024-01-07T03:54:14;-0.80;99.90
6054;DHT22;3055;50.886;14.814;2024-01-07T03:56:41;-0.80;99.90
6054;DHT22;3055;50.886;14.814;2024-01-07T03:59:08;-0.90;99.90
6054;DHT22;3055;50.886;14.814;2024-01-07T04:01:35;-0.90;99.90
6054;DHT22;3055;50.886;14.814;2024-01-07T04:04:02;-0.90;99.90
6054;DHT22;3055;50.886;14.814;2024-01-07T04:06:29;-0.80;99.90
6054;DHT22;3055;50.886;14.814;2024-01-07T04:08:58;-0.80;99.90
6054;DHT22;3055;50.886;14.814;2024-01-07T04:11:25;-0.90;99.90
6054;DHT22;3055;50.886;14.814;2024-01-07T04:13:52;-0.90;99.90
6054;DHT22;3055;50.886;14.814;2024-01-07T04:16:19;-0.90;99.90
6054;DHT22;3055;50.886;14.814;2024-01-07T04:18:47;-0.90;99.90
6054;DHT22;3055;50.886;14.814;2024-01-07T04:21:14;-0.90;99.90
6054;DHT22;3055;50.886;14.814;2024-01-07T04:23:41;-0.90;99.90
6054;DHT22;3055;50.886;14.814;2024-01-07T04:26:10;-0.90;99.90
6054;DHT22;3055;50.886;14.814;2024-01-07T04:28:39;-1.00;99.90
6054;DHT22;3055;50.886;14.814;2024-01-07T04:31:07;-1.00;99.90
6054;DHT22;3055;50.886;14.814;2024-01-07T04:33:34;-1.00;99.90
6054;DHT22;3055;50.886;14.814;2024-01-07T04:36:01;-1.00;99.90
6054;DHT22;3055;50.886;14.814;2024-01-07T04:38:29;-1.00;99.90
6054;DHT22;3055;50.886;14.814;2024-01-07T04:40:57;-1.10;99.90
6054;DHT22;3055;50.886;14.814;2024-01-07T04:43:25;-1.10;99.90
6054;DHT22;3055;50.886;14.814;2024-01-07T04:45:52;-1.10;99.90
6054;DHT22;3055;50.886;14.814;2024-01-07T04:48:20;-1.10;99.90
6054;DHT22;3055;50.886;14.814;2024-01-07T04:50:47;-1.20;99.90
6054;DHT22;3055;50.886;14.814;2024-01-07T04:53:14;-1.10;99.90
6054;DHT22;3055;50.886;14.814;2024-01-07T04:55:41;-1.10;99.90
6054;DHT22;3055;50.886;14.814;2024-01-07T04:58:08;-1.10;99.90
6054;DHT22;3055;50.886;14.814;2024-01-07T05:00:37;-1.10;99.90
6054;DHT22;3055;50.886;14.814;2024-01-07T05:03:04;-1.10;99.90
6054;DHT22;3055;50.886;14.814;2024-01-07T05:05:32;-1.10;99.90
6054;DHT22;3055;50.886;14.814;2024-01-07T05:07:59;-1.10;99.90
6054;DHT22;3055;50.886;14.814;2024-01-07T05:10:26;-1.10;99.90
6054;DHT22;3055;50.886;14.814;2024-01-07T05:12:53;-1.10;99.90
6054;DHT22;3055;50.886;14.814;2024-01-07T05:15:20;-1.10;99.90
6054;DHT22;3055;50.886;14.814;2024-01-07T05:17:49;-1.10;99.90
6054;DHT22;3055;50.886;14.814;2024-01-07T05:20:16;-1.20;99.90
6054;DHT22;3055;50.886;14.814;2024-01-07T05:22:44;-1.20;99.90
6054;DHT22;3055;50.886;14.814;2024-01-07T05:25:11;-1.20;99.90
6054;DHT22;3055;50.886;14.814;2024-01-07T05:27:38;-1.20;99.90
6054;DHT22;3055;50.886;14.814;2024-01-07T05:30:06;-1.20;99.90
6054;DHT22;3055;50.886;14.814;2024-01-07T05:32:34;-1.20;99.90
6054;DHT22;3055;50.886;14.814;2024-01-07T05:35:03;-1.20;99.90
6054;DHT22;3055;50.886;14.814;2024-01-07T05:37:31;-1.20;99.90
6054;DHT22;3055;50.886;14.814;2024-01-07T05:39:58;-1.20;99.90
6054;DHT22;3055;50.886;14.814;2024-01-07T05:42:25;-1.20;99.90
6054;DHT22;3055;50.886;14.814;2024-01-07T05:44:52;-1.20;99.90
6054;DHT22;3055;50.886;14.814;2024-01-07T05:47:19;-1.30;99.90
6054;DHT22;3055;50.886;14.814;2024-01-07T05:49:47;-1.30;99.90
6054;DHT22;3055;50.886;14.814;2024-01-07T05:52:16;-1.30;99.90
6054;DHT22;3055;50.886;14.814;2024-01-07T05:54:43;-1.30;99.90
6054;DHT22;3055;50.886;14.814;2024-01-07T05:57:11;-1.30;99.90
6054;DHT22;3055;50.886;14.814;2024-01-07T05:59:39;-1.30;99.90
6054;DHT22;3055;50.886;14.814;2024-01-07T06:02:06;-1.30;99.90
6054;DHT22;3055;50.886;14.814;2024-01-07T06:04:34;-1.20;99.90
6054;DHT22;3055;50.886;14.814;2024-01-07T06:07:03;-1.30;99.90
6054;DHT22;3055;50.886;14.814;2024-01-07T06:09:31;-1.40;99.90
6054;DHT22;3055;50.886;14.814;2024-01-07T06:11:58;-1.40;99.90
6054;DHT22;3055;50.886;14.814;2024-01-07T06:14:26;-1.40;99.90
6054;DHT22;3055;50.886;14.814;2024-01-07T06:16:53;-1.50;99.90
6054;DHT22;3055;50.886;14.814;2024-01-07T06:19:21;-1.50;99.90
6054;DHT22;3055;50.886;14.814;2024-01-07T06:21:48;-1.40;99.90
6054;DHT22;3055;50.886;14.814;2024-01-07T06:24:15;-1.50;99.90
6054;DHT22;3055;50.886;14.814;2024-01-07T06:26:44;-1.50;99.90
6054;DHT22;3055;50.886;14.814;2024-01-07T06:29:12;-1.50;99.90
6054;DHT22;3055;50.886;14.814;2024-01-07T06:31:44;-1.50;99.90
6054;DHT22;3055;50.886;14.814;2024-01-07T06:34:12;-1.50;99.90
6054;DHT22;3055;50.886;14.814;2024-01-07T06:36:41;-1.50;99.90
6054;DHT22;3055;50.886;14.814;2024-01-07T06:39:08;-1.50;99.90
6054;DHT22;3055;50.886;14.814;2024-01-07T06:41:35;-1.50;99.90
6054;DHT22;3055;50.886;14.814;2024-01-07T06:44:05;-1.50;99.90
6054;DHT22;3055;50.886;14.814;2024-01-07T06:46:32;-1.60;99.90
6054;DHT22;3055;50.886;14.814;2024-01-07T06:49:00;-1.60;99.90
6054;DHT22;3055;50.886;14.814;2024-01-07T06:51:28;-1.60;99.90
6054;DHT22;3055;50.886;14.814;2024-01-07T06:53:56;-1.60;99.90
6054;DHT22;3055;50.886;14.814;2024-01-07T06:56:23;-1.60;99.90
6054;DHT22;3055;50.886;14.814;2024-01-07T06:58:51;-1.60;99.90
6054;DHT22;3055;50.886;14.814;2024-01-07T07:01:21;-1.60;99.90
6054;DHT22;3055;50.886;14.814;2024-01-07T07:03:49;-1.60;99.90
6054;DHT22;3055;50.886;14.814;2024-01-07T07:06:17;-1.60;99.90
6054;DHT22;3055;50.886;14.814;2024-01-07T07:08:45;-1.60;99.90
6054;DHT22;3055;50.886;14.814;2024-01-07T07:11:13;-1.60;99.90
6054;DHT22;3055;50.886;14.814;2024-01-07T07:13:40;-1.60;99.90
6054;DHT22;3055;50.886;14.814;2024-01-07T07:16:08;-1.60;96.60
6054;DHT22;3055;50.886;14.814;2024-01-07T07:18:37;-1.60;95.50
6054;DHT22;3055;50.886;14.814;2024-01-07T07:21:04;-1.70;97.70
6054;DHT22;3055;50.886;14.814;2024-01-07T07:23:31;-1.70;97.60
6054;DHT22;3055;50.886;14.814;2024-01-07T07:25:59;-1.70;99.90
6054;DHT22;3055;50.886;14.814;2024-01-07T07:28:27;-1.60;99.90
6054;DHT22;3055;50.886;14.814;2024-01-07T07:30:54;-1.60;99.90
6054;DHT22;3055;50.886;14.814;2024-01-07T07:33:21;-1.60;99.90
6054;DHT22;3055;50.886;14.814;2024-01-07T07:35:50;-1.70;99.90
6054;DHT22;3055;50.886;14.814;2024-01-07T07:38:17;-1.60;99.90
6054;DHT22;3055;50.886;14.814;2024-01-07T07:40:44;-1.60;99.90
6054;DHT22;3055;50.886;14.814;2024-01-07T07:43:18;-1.60;99.90
6054;DHT22;3055;50.886;14.814;2024-01-07T07:45:46;-1.60;99.90
6054;DHT22;3055;50.886;14.814;2024-01-07T07:48:14;-1.60;99.90
6054;DHT22;3055;50.886;14.814;2024-01-07T07:50:42;-1.60;99.90
6054;DHT22;3055;50.886;14.814;2024-01-07T07:53:11;-1.60;99.90
6054;DHT22;3055;50.886;14.814;2024-01-07T07:55:39;-1.60;99.90
6054;DHT22;3055;50.886;14.814;2024-01-07T07:58:06;-1.60;99.90
6054;DHT22;3055;50.886;14.814;2024-01-07T08:00:34;-1.70;99.90
6054;DHT22;3055;50.886;14.814;2024-01-07T08:03:01;-1.70;99.90
6054;DHT22;3055;50.886;14.814;2024-01-07T08:05:29;-1.70;99.90
6054;DHT22;3055;50.886;14.814;2024-01-07T08:07:57;-1.70;99.90
6054;DHT22;3055;50.886;14.814;2024-01-07T08:10:25;-1.60;99.90
6054;DHT22;3055;50.886;14.814;2024-01-07T08:12:54;-1.60;99.90
6054;DHT22;3055;50.886;14.814;2024-01-07T08:15:21;-1.70;99.90
6054;DHT22;3055;50.886;14.814;2024-01-07T08:17:48;-1.70;99.90
6054;DHT22;3055;50.886;14.814;2024-01-07T08:20:17;-1.80;99.90
6054;DHT22;3055;50.886;14.814;2024-01-07T08:22:45;-1.80;99.90
6054;DHT22;3055;50.886;14.814;2024-01-07T08:25:12;-1.80;99.90
6054;DHT22;3055;50.886;14.814;2024-01-07T08:27:42;-1.80;99.90
6054;DHT22;3055;50.886;14.814;2024-01-07T08:30:10;-1.80;99.90
6054;DHT22;3055;50.886;14.814;2024-01-07T08:32:39;-1.80;99.90
6054;DHT22;3055;50.886;14.814;2024-01-07T08:35:07;-1.80;99.90
6054;DHT22;3055;50.886;14.814;2024-01-07T08:37:35;-1.80;99.90
6054;DHT22;3055;50.886;14.814;2024-01-07T08:40:02;-1.70;99.90
6054;DHT22;3055;50.886;14.814;2024-01-07T08:42:30;-1.70;99.90
6054;DHT22;3055;50.886;14.814;2024-01-07T08:44:59;-1.70;99.90
6054;DHT22;3055;50.886;14.814;2024-01-07T08:47:26;-1.70;99.90
6054;DHT22;3055;50.886;14.814;2024-01-07T08:49:54;-1.80;99.90
6054;DHT22;3055;50.886;14.814;2024-01-07T08:52:21;-1.80;99.90
6054;DHT22;3055;50.886;14.814;2024-01-07T08:54:48;-1.80;99.90
6054;DHT22;3055;50.886;14.814;2024-01-07T08:57:16;-1.70;99.90
6054;DHT22;3055;50.886;14.814;2024-01-07T08:59:43;-1.70;99.90
6054;DHT22;3055;50.886;14.814;2024-01-07T09:02:12;-1.80;99.90
6054;DHT22;3055;50.886;14.814;2024-01-07T09:04:39;-1.80;99.90
6054;DHT22;3055;50.886;14.814;2024-01-07T09:07:07;-1.80;99.90
6054;DHT22;3055;50.886;14.814;2024-01-07T09:09:34;-1.70;99.90
6054;DHT22;3055;50.886;14.814;2024-01-07T09:12:01;-1.70;99.90
6054;DHT22;3055;50.886;14.814;2024-01-07T09:14:30;-1.70;99.90
6054;DHT22;3055;50.886;14.814;2024-01-07T09:16:57;-1.70;99.90
6054;DHT22;3055;50.886;14.814;2024-01-07T09:19:26;-1.60;99.90
6054;DHT22;3055;50.886;14.814;2024-01-07T09:21:53;-1.70;99.90
6054;DHT22;3055;50.886;14.814;2024-01-07T09:24:20;-1.70;99.60
6054;DHT22;3055;50.886;14.814;2024-01-07T09:26:48;-1.60;99.90
6054;DHT22;3055;50.886;14.814;2024-01-07T09:29:17;-1.60;97.90
6054;DHT22;3055;50.886;14.814;2024-01-07T09:31:44;-1.60;99.60
6054;DHT22;3055;50.886;14.814;2024-01-07T09:34:12;-1.60;99.90
6054;DHT22;3055;50.886;14.814;2024-01-07T09:36:41;-1.60;99.90
6054;DHT22;3055;50.886;14.814;2024-01-07T09:39:09;-1.60;99.90
6054;DHT22;3055;50.886;14.814;2024-01-07T09:41:36;-1.60;99.90
6054;DHT22;3055;50.886;14.814;2024-01-07T09:44:05;-1.60;96.50
6054;DHT22;3055;50.886;14.814;2024-01-07T09:46:34;-1.60;99.90
6054;DHT22;3055;50.886;14.814;2024-01-07T09:49:04;-1.60;95.90
6054;DHT22;3055;50.886;14.814;2024-01-07T09:51:34;-1.60;95.30
6054;DHT22;3055;50.886;14.814;2024-01-07T09:54:08;-1.60;94.70
6054;DHT22;3055;50.886;14.814;2024-01-07T09:56:39;-1.50;95.00
6054;DHT22;3055;50.886;14.814;2024-01-07T09:59:09;-1.50;95.10
6054;DHT22;3055;50.886;14.814;2024-01-07T10:01:37;-1.50;79.20
6054;DHT22;3055;50.886;14.814;2024-01-07T10:04:05;-1.60;79.10
6054;DHT22;3055;50.886;14.814;2024-01-07T10:06:32;-1.60;67.70
6054;DHT22;3055;50.886;14.814;2024-01-07T10:08:59;-1.70;56.70
6054;DHT22;3055;50.886;14.814;2024-01-07T10:11:28;-1.70;66.10
6054;DHT22;3055;50.886;14.814;2024-01-07T10:13:55;-1.70;67.10
6054;DHT22;3055;50.886;14.814;2024-01-07T10:16:22;-1.80;79.10
6054;DHT22;3055;50.886;14.814;2024-01-07T10:18:49;-1.80;71.30
6054;DHT22;3055;50.886;14.814;2024-01-07T10:21:17;-1.80;93.90
6054;DHT22;3055;50.886;14.814;2024-01-07T10:23:44;-1.80;76.60
6054;DHT22;3055;50.886;14.814;2024-01-07T10:26:12;-1.80;64.10
6054;DHT22;3055;50.886;14.814;2024-01-07T10:28:40;-1.80;51.10
6054;DHT22;3055;50.886;14.814;2024-01-07T10:31:09;-1.80;58.60
6054;DHT22;3055;50.886;14.814;2024-01-07T10:33:36;-1.80;64.10
6054;DHT22;3055;50.886;14.814;2024-01-07T10:36:06;-1.80;75.80
6054;DHT22;3055;50.886;14.814;2024-01-07T10:38:33;-1.80;61.80
6054;DHT22;3055;50.886;14.814;2024-01-07T10:41:01;-1.80;55.80
6054;DHT22;3055;50.886;14.814;2024-01-07T10:43:29;-1.80;53.60
6054;DHT22;3055;50.886;14.814;2024-01-07T10:46:00;-1.80;31.80
6054;DHT22;3055;50.886;14.814;2024-01-07T10:48:30;-1.70;6.30
6054;DHT22;3055;50.886;14.814;2024-01-07T10:51:00;-1.80;1.00
6054;DHT22;3055;50.886;14.814;2024-01-07T10:53:33;-1.80;1.00
6054;DHT22;3055;50.886;14.814;2024-01-07T10:56:04;-1.80;1.00
6054;DHT22;3055;50.886;14.814;2024-01-07T10:58:33;-1.90;1.00
6054;DHT22;3055;50.886;14.814;2024-01-07T11:01:02;-1.90;99.90
6054;DHT22;3055;50.886;14.814;2024-01-07T11:03:38;-1.80;1.00
6054;DHT22;3055;50.886;14.814;2024-01-07T11:06:14;-1.80;1.00
6054;DHT22;3055;50.886;14.814;2024-01-07T11:08:46;-1.70;1.00
6054;DHT22;3055;50.886;14.814;2024-01-07T11:11:23;-1.60;1.00
6054;DHT22;3055;50.886;14.814;2024-01-07T11:13:52;-1.60;99.90
6054;DHT22;3055;50.886;14.814;2024-01-07T11:16:42;-1.60;99.90
6054;DHT22;3055;50.886;14.814;2024-01-07T11:19:09;-1.50;99.90
6054;DHT22;3055;50.886;14.814;2024-01-07T11:21:39;-1.60;99.90
6054;DHT22;3055;50.886;14.814;2024-01-07T11:24:06;-1.50;99.90
6054;DHT22;3055;50.886;14.814;2024-01-07T11:26:34;-1.50;99.90
6054;DHT22;3055;50.886;14.814;2024-01-07T11:29:02;-1.60;99.90
6054;DHT22;3055;50.886;14.814;2024-01-07T11:31:46;-1.50;99.90
6054;DHT22;3055;50.886;14.814;2024-01-07T11:34:38;-1.50;99.90
6054;DHT22;3055;50.886;14.814;2024-01-07T11:37:09;-1.50;99.90
6054;DHT22;3055;50.886;14.814;2024-01-07T11:39:36;-1.50;99.90
6054;DHT22;3055;50.886;14.814;2024-01-07T11:42:04;-1.50;99.90
6054;DHT22;3055;50.886;14.814;2024-01-07T11:44:34;-1.40;99.90
6054;DHT22;3055;50.886;14.814;2024-01-07T11:47:04;-1.50;99.90
6054;DHT22;3055;50.886;14.814;2024-01-07T11:49:32;-1.50;99.90
6054;DHT22;3055;50.886;14.814;2024-01-07T11:51:59;-1.50;99.90
6054;DHT22;3055;50.886;14.814;2024-01-07T11:54:28;-1.50;99.90
6054;DHT22;3055;50.886;14.814;2024-01-07T11:56:56;-1.50;99.90
6054;DHT22;3055;50.886;14.814;2024-01-07T11:59:23;-1.50;99.90
6054;DHT22;3055;50.886;14.814;2024-01-07T12:01:51;-1.60;99.90
6054;DHT22;3055;50.886;14.814;2024-01-07T12:04:20;-1.70;99.90
6054;DHT22;3055;50.886;14.814;2024-01-07T12:06:47;-1.80;99.90
6054;DHT22;3055;50.886;14.814;2024-01-07T12:09:15;-1.80;99.90
6054;DHT22;3055;50.886;14.814;2024-01-07T12:11:44;-1.80;99.90
6054;DHT22;3055;50.886;14.814;2024-01-07T12:14:12;-1.80;99.90
6054;DHT22;3055;50.886;14.814;2024-01-07T12:16:39;-1.60;99.90
6054;DHT22;3055;50.886;14.814;2024-01-07T12:19:08;-1.70;99.90
6054;DHT22;3055;50.886;14.814;2024-01-07T12:21:37;-1.70;99.90
6054;DHT22;3055;50.886;14.814;2024-01-07T12:24:06;-1.80;99.90
6054;DHT22;3055;50.886;14.814;2024-01-07T12:26:33;-1.90;99.90
6054;DHT22;3055;50.886;14.814;2024-01-07T12:29:01;-2.00;99.90
6054;DHT22;3055;50.886;14.814;2024-01-07T12:31:31;-2.00;99.90
6054;DHT22;3055;50.886;14.814;2024-01-07T12:33:58;-2.10;99.90
6054;DHT22;3055;50.886;14.814;2024-01-07T12:36:26;-2.10;99.90
6054;DHT22;3055;50.886;14.814;2024-01-07T12:38:55;-2.10;99.90
6054;DHT22;3055;50.886;14.814;2024-01-07T12:41:24;-2.10;99.90
6054;DHT22;3055;50.886;14.814;2024-01-07T12:43:51;-2.10;99.90
6054;DHT22;3055;50.886;14.814;2024-01-07T12:46:18;-2.10;99.90
6054;DHT22;3055;50.886;14.814;2024-01-07T12:48:46;-2.10;99.90
6054;DHT22;3055;50.886;14.814;2024-01-07T12:51:13;-2.20;99.90
6054;DHT22;3055;50.886;14.814;2024-01-07T12:53:41;-2.20;99.90
6054;DHT22;3055;50.886;14.814;2024-01-07T12:56:11;-2.20;99.90
6054;DHT22;3055;50.886;14.814;2024-01-07T12:58:39;-2.20;99.90
6054;DHT22;3055;50.886;14.814;2024-01-07T13:01:05;-2.20;99.90
6054;DHT22;3055;50.886;14.814;2024-01-07T13:03:32;-2.20;99.90
6054;DHT22;3055;50.886;14.814;2024-01-07T13:05:59;-2.20;99.90
6054;DHT22;3055;50.886;14.814;2024-01-07T13:08:27;-2.20;99.90
6054;DHT22;3055;50.886;14.814;2024-01-07T13:10:54;-2.20;99.90
6054;DHT22;3055;50.886;14.814;2024-01-07T13:13:22;-2.20;99.90
6054;DHT22;3055;50.886;14.814;2024-01-07T13:15:49;-2.10;99.90
6054;DHT22;3055;50.886;14.814;2024-01-07T13:18:17;-2.10;99.90
6054;DHT22;3055;50.886;14.814;2024-01-07T13:20:44;-2.00;99.90
6054;DHT22;3055;50.886;14.814;2024-01-07T13:23:11;-2.00;99.90
6054;DHT22;3055;50.886;14.814;2024-01-07T13:25:39;-2.00;99.90
6054;DHT22;3055;50.886;14.814;2024-01-07T13:28:06;-2.00;99.90
6054;DHT22;3055;50.886;14.814;2024-01-07T13:30:38;-2.00;99.90
6054;DHT22;3055;50.886;14.814;2024-01-07T13:33:06;-2.10;99.90
6054;DHT22;3055;50.886;14.814;2024-01-07T13:35:33;-2.10;99.90
6054;DHT22;3055;50.886;14.814;2024-01-07T13:38:01;-2.00;99.90
6054;DHT22;3055;50.886;14.814;2024-01-07T13:40:28;-1.90;99.90
6054;DHT22;3055;50.886;14.814;2024-01-07T13:42:56;-1.90;99.90
6054;DHT22;3055;50.886;14.814;2024-01-07T13:45:23;-2.00;99.90
6054;DHT22;3055;50.886;14.814;2024-01-07T13:47:52;-2.00;99.90
6054;DHT22;3055;50.886;14.814;2024-01-07T13:50:19;-2.10;99.90
6054;DHT22;3055;50.886;14.814;2024-01-07T13:52:47;-2.10;99.90
6054;DHT22;3055;50.886;14.814;2024-01-07T13:55:14;-2.10;99.90
6054;DHT22;3055;50.886;14.814;2024-01-07T13:57:41;-2.10;99.90
6054;DHT22;3055;50.886;14.814;2024-01-07T14:00:09;-2.10;99.90
6054;DHT22;3055;50.886;14.814;2024-01-07T14:02:44;-2.10;99.90
6054;DHT22;3055;50.886;14.814;2024-01-07T14:05:14;-2.20;99.90
6054;DHT22;3055;50.886;14.814;2024-01-07T14:07:41;-2.20;99.90
6054;DHT22;3055;50.886;14.814;2024-01-07T14:10:09;-2.20;99.90
6054;DHT22;3055;50.886;14.814;2024-01-07T14:12:36;-2.20;99.90
6054;DHT22;3055;50.886;14.814;2024-01-07T14:15:04;-2.20;99.90
6054;DHT22;3055;50.886;14.814;2024-01-07T14:17:33;-2.30;99.90
6054;DHT22;3055;50.886;14.814;2024-01-07T14:20:01;-2.30;99.90
6054;DHT22;3055;50.886;14.814;2024-01-07T14:22:30;-2.30;99.90
6054;DHT22;3055;50.886;14.814;2024-01-07T14:24:57;-2.40;99.90
6054;DHT22;3055;50.886;14.814;2024-01-07T14:27:25;-2.30;99.90
6054;DHT22;3055;50.886;14.814;2024-01-07T14:29:52;-2.30;99.90
6054;DHT22;3055;50.886;14.814;2024-01-07T14:32:20;-2.40;99.90
6054;DHT22;3055;50.886;14.814;2024-01-07T14:34:47;-2.40;99.90
6054;DHT22;3055;50.886;14.814;2024-01-07T14:37:16;-2.40;99.90
6054;DHT22;3055;50.886;14.814;2024-01-07T14:39:44;-2.40;99.90
6054;DHT22;3055;50.886;14.814;2024-01-07T14:42:12;-2.50;99.90
6054;DHT22;3055;50.886;14.814;2024-01-07T14:44:39;-2.50;99.90
6054;DHT22;3055;50.886;14.814;2024-01-07T14:47:06;-2.50;99.90
6054;DHT22;3055;50.886;14.814;2024-01-07T14:49:34;-2.60;99.90
6054;DHT22;3055;50.886;14.814;2024-01-07T14:52:01;-2.50;99.90
6054;DHT22;3055;50.886;14.814;2024-01-07T14:54:28;-2.60;99.90
6054;DHT22;3055;50.886;14.814;2024-01-07T14:56:59;-2.60;99.90
6054;DHT22;3055;50.886;14.814;2024-01-07T14:59:27;-2.70;99.90
6054;DHT22;3055;50.886;14.814;2024-01-07T15:01:54;-2.70;99.90
6054;DHT22;3055;50.886;14.814;2024-01-07T15:04:21;-2.70;99.90
6054;DHT22;3055;50.886;14.814;2024-01-07T15:06:48;-2.70;99.90
6054;DHT22;3055;50.886;14.814;2024-01-07T15:09:16;-2.70;99.90
6054;DHT22;3055;50.886;14.814;2024-01-07T15:11:43;-2.70;99.90
6054;DHT22;3055;50.886;14.814;2024-01-07T15:14:15;-2.70;99.90
6054;DHT22;3055;50.886;14.814;2024-01-07T15:16:42;-2.80;99.90
6054;DHT22;3055;50.886;14.814;2024-01-07T15:19:11;-2.80;99.90
6054;DHT22;3055;50.886;14.814;2024-01-07T15:21:38;-2.80;99.90
6054;DHT22;3055;50.886;14.814;2024-01-07T15:24:06;-2.80;99.90
6054;DHT22;3055;50.886;14.814;2024-01-07T15:26:33;-2.90;99.90
6054;DHT22;3055;50.886;14.814;2024-01-07T15:29:01;-2.90;99.90
6054;DHT22;3055;50.886;14.814;2024-01-07T15:31:30;-2.90;99.90
6054;DHT22;3055;50.886;14.814;2024-01-07T15:33:57;-2.90;99.90
6054;DHT22;3055;50.886;14.814;2024-01-07T15:36:25;-2.90;99.90
6054;DHT22;3055;50.886;14.814;2024-01-07T15:38:52;-2.90;99.90
6054;DHT22;3055;50.886;14.814;2024-01-07T15:41:19;-2.90;99.90
6054;DHT22;3055;50.886;14.814;2024-01-07T15:43:46;-2.90;99.90
6054;DHT22;3055;50.886;14.814;2024-01-07T15:46:13;-2.90;99.90
6054;DHT22;3055;50.886;14.814;2024-01-07T15:48:42;-2.90;99.90
6054;DHT22;3055;50.886;14.814;2024-01-07T15:51:09;-2.90;99.90